sensor_id;sensor_type;location;lat;lon;timestamp;P1;durP1;ratioP1;P2;durP2;ratioP2
20629;SDS011;17386;43.846;25.950;2022-12-17T00:00:31;71.57;;;20.98;;
20629;SDS011;17386;43.846;25.950;2022-12-17T00:03:15;61.72;;;21.52;;
20629;SDS011;17386;43.846;25.950;2022-12-17T00:05:59;57.58;;;19.60;;
20629;SDS011;17386;43.846;25.950;2022-12-17T00:08:43;62.92;;;20.17;;
20629;SDS011;17386;43.846;25.950;2022-12-17T00:11:27;61.70;;;18.92;;
20629;SDS011;17386;43.846;25.950;2022-12-17T00:14:11;64.32;;;20.88;;
20629;SDS011;17386;43.846;25.950;2022-12-17T00:16:55;53.10;;;19.08;;
20629;SDS011;17386;43.846;25.950;2022-12-17T00:19:39;60.97;;;18.95;;
20629;SDS011;17386;43.846;25.950;2022-12-17T00:22:23;53.75;;;18.80;;
20629;SDS011;17386;43.846;25.950;2022-12-17T00:25:07;61.30;;;21.25;;
20629;SDS011;17386;43.846;25.950;2022-12-17T00:27:51;69.50;;;21.13;;
20629;SDS011;17386;43.846;25.950;2022-12-17T00:30:35;59.90;;;19.70;;
20629;SDS011;17386;43.846;25.950;2022-12-17T00:33:19;63.83;;;19.75;;
20629;SDS011;17386;43.846;25.950;2022-12-17T00:36:03;59.38;;;21.92;;
20629;SDS011;17386;43.846;25.950;2022-12-17T00:38:46;63.85;;;20.25;;
20629;SDS011;17386;43.846;25.950;2022-12-17T00:41:31;58.90;;;18.73;;
20629;SDS011;17386;43.846;25.950;2022-12-17T00:44:14;62.08;;;20.42;;
20629;SDS011;17386;43.846;25.950;2022-12-17T00:46:58;61.67;;;20.60;;
20629;SDS011;17386;43.846;25.950;2022-12-17T00:49:42;55.20;;;19.67;;
20629;SDS011;17386;43.846;25.950;2022-12-17T00:52:26;52.45;;;18.33;;
20629;SDS011;17386;43.846;25.950;2022-12-17T00:55:11;54.00;;;18.17;;
20629;SDS011;17386;43.846;25.950;2022-12-17T00:57:55;57.25;;;19.30;;
20629;SDS011;17386;43.846;25.950;2022-12-17T01:00:40;59.17;;;20.27;;
20629;SDS011;17386;43.846;25.950;2022-12-17T01:03:25;57.25;;;20.15;;
20629;SDS011;17386;43.846;25.950;2022-12-17T01:06:10;61.67;;;20.52;;
20629;SDS011;17386;43.846;25.950;2022-12-17T01:08:54;59.58;;;18.73;;
20629;SDS011;17386;43.846;25.950;2022-12-17T01:11:38;59.28;;;19.20;;
20629;SDS011;17386;43.846;25.950;2022-12-17T01:14:22;62.60;;;21.05;;
20629;SDS011;17386;43.846;25.950;2022-12-17T01:17:07;62.05;;;19.90;;
20629;SDS011;17386;43.846;25.950;2022-12-17T01:19:51;52.70;;;17.92;;
20629;SDS011;17386;43.846;25.950;2022-12-17T01:22:35;57.75;;;18.90;;
20629;SDS011;17386;43.846;25.950;2022-12-17T01:25:19;55.15;;;17.63;;
20629;SDS011;17386;43.846;25.950;2022-12-17T01:28:03;54.25;;;18.25;;
20629;SDS011;17386;43.846;25.950;2022-12-17T01:30:47;58.15;;;18.92;;
20629;SDS011;17386;43.846;25.950;2022-12-17T01:33:30;50.05;;;18.08;;
20629;SDS011;17386;43.846;25.950;2022-12-17T01:36:14;49.13;;;16.88;;
20629;SDS011;17386;43.846;25.950;2022-12-17T01:38:58;47.58;;;17.35;;
20629;SDS011;17386;43.846;25.950;2022-12-17T01:41:42;46.92;;;15.85;;
20629;SDS011;17386;43.846;25.950;2022-12-17T01:44:42;40.92;;;13.52;;
20629;SDS011;17386;43.846;25.950;2022-12-17T01:47:29;48.47;;;15.65;;
20629;SDS011;17386;43.846;25.950;2022-12-17T01:50:29;38.08;;;13.40;;
20629;SDS011;17386;43.846;25.950;2022-12-17T01:53:16;37.30;;;13.75;;
20629;SDS011;17386;43.846;25.950;2022-12-17T01:56:03;36.78;;;12.43;;
20629;SDS011;17386;43.846;25.950;2022-12-17T01:58:48;34.03;;;13.00;;
20629;SDS011;17386;43.846;25.950;2022-12-17T02:01:32;37.72;;;13.18;;
20629;SDS011;17386;43.846;25.950;2022-12-17T02:04:16;37.28;;;12.07;;
20629;SDS011;17386;43.846;25.950;2022-12-17T02:12:54;34.72;;;11.68;;
20629;SDS011;17386;43.846;25.950;2022-12-17T02:15:46;29.73;;;11.05;;
20629;SDS011;17386;43.846;25.950;2022-12-17T02:18:37;29.33;;;11.30;;
20629;SDS011;17386;43.846;25.950;2022-12-17T02:21:26;32.10;;;11.57;;
20629;SDS011;17386;43.846;25.950;2022-12-17T02:24:30;29.58;;;10.98;;
20629;SDS011;17386;43.846;25.950;2022-12-17T02:27:21;32.40;;;10.80;;
20629;SDS011;17386;43.846;25.950;2022-12-17T02:30:06;31.63;;;11.30;;
20629;SDS011;17386;43.846;25.950;2022-12-17T02:32:52;29.23;;;11.13;;
20629;SDS011;17386;43.846;25.950;2022-12-17T02:35:44;33.20;;;11.85;;
20629;SDS011;17386;43.846;25.950;2022-12-17T02:38:32;29.73;;;11.15;;
20629;SDS011;17386;43.846;25.950;2022-12-17T02:41:17;27.25;;;10.77;;
20629;SDS011;17386;43.846;25.950;2022-12-17T02:44:05;30.27;;;11.32;;
20629;SDS011;17386;43.846;25.950;2022-12-17T02:46:51;27.85;;;10.30;;
20629;SDS011;17386;43.846;25.950;2022-12-17T02:49:37;28.13;;;10.73;;
20629;SDS011;17386;43.846;25.950;2022-12-17T02:52:21;26.85;;;11.02;;
20629;SDS011;17386;43.846;25.950;2022-12-17T02:55:06;28.77;;;11.40;;
20629;SDS011;17386;43.846;25.950;2022-12-17T02:57:50;28.63;;;10.73;;
20629;SDS011;17386;43.846;25.950;2022-12-17T03:00:34;30.45;;;10.85;;
20629;SDS011;17386;43.846;25.950;2022-12-17T03:03:18;27.83;;;10.23;;
20629;SDS011;17386;43.846;25.950;2022-12-17T03:06:13;24.90;;;9.98;;
20629;SDS011;17386;43.846;25.950;2022-12-17T03:08:57;23.70;;;9.85;;
20629;SDS011;17386;43.846;25.950;2022-12-17T03:11:41;23.10;;;9.75;;
20629;SDS011;17386;43.846;25.950;2022-12-17T03:14:38;27.33;;;9.88;;
20629;SDS011;17386;43.846;25.950;2022-12-17T03:17:22;25.42;;;10.25;;
20629;SDS011;17386;43.846;25.950;2022-12-17T03:20:06;26.58;;;11.30;;
20629;SDS011;17386;43.846;25.950;2022-12-17T03:22:51;26.38;;;10.68;;
20629;SDS011;17386;43.846;25.950;2022-12-17T03:25:35;30.15;;;11.00;;
20629;SDS011;17386;43.846;25.950;2022-12-17T03:28:19;29.52;;;12.43;;
20629;SDS011;17386;43.846;25.950;2022-12-17T03:31:03;34.20;;;12.90;;
20629;SDS011;17386;43.846;25.950;2022-12-17T03:34:01;29.35;;;11.60;;
20629;SDS011;17386;43.846;25.950;2022-12-17T03:36:45;34.08;;;11.73;;
20629;SDS011;17386;43.846;25.950;2022-12-17T03:39:28;30.30;;;11.20;;
20629;SDS011;17386;43.846;25.950;2022-12-17T03:42:12;31.55;;;10.85;;
20629;SDS011;17386;43.846;25.950;2022-12-17T03:44:56;29.05;;;11.20;;
20629;SDS011;17386;43.846;25.950;2022-12-17T03:47:40;26.33;;;9.93;;
20629;SDS011;17386;43.846;25.950;2022-12-17T03:50:24;30.52;;;10.70;;
20629;SDS011;17386;43.846;25.950;2022-12-17T03:53:08;29.90;;;10.88;;
20629;SDS011;17386;43.846;25.950;2022-12-17T03:55:52;27.13;;;10.70;;
20629;SDS011;17386;43.846;25.950;2022-12-17T03:58:36;26.88;;;10.98;;
20629;SDS011;17386;43.846;25.950;2022-12-17T04:01:20;30.65;;;10.93;;
20629;SDS011;17386;43.846;25.950;2022-12-17T04:04:04;36.97;;;11.15;;
20629;SDS011;17386;43.846;25.950;2022-12-17T04:06:48;28.13;;;11.80;;
20629;SDS011;17386;43.846;25.950;2022-12-17T04:09:32;27.98;;;12.15;;
20629;SDS011;17386;43.846;25.950;2022-12-17T04:12:15;27.70;;;10.88;;
20629;SDS011;17386;43.846;25.950;2022-12-17T04:14:59;28.65;;;12.00;;
20629;SDS011;17386;43.846;25.950;2022-12-17T04:17:43;27.27;;;10.57;;
20629;SDS011;17386;43.846;25.950;2022-12-17T04:20:27;26.20;;;10.77;;
20629;SDS011;17386;43.846;25.950;2022-12-17T04:23:11;28.45;;;11.20;;
20629;SDS011;17386;43.846;25.950;2022-12-17T04:25:55;31.45;;;11.60;;
20629;SDS011;17386;43.846;25.950;2022-12-17T04:28:39;32.15;;;12.10;;
20629;SDS011;17386;43.846;25.950;2022-12-17T04:31:23;29.55;;;11.13;;
20629;SDS011;17386;43.846;25.950;2022-12-17T04:34:06;32.15;;;11.80;;
20629;SDS011;17386;43.846;25.950;2022-12-17T04:36:51;31.65;;;11.20;;
20629;SDS011;17386;43.846;25.950;2022-12-17T04:39:34;35.63;;;11.35;;
20629;SDS011;17386;43.846;25.950;2022-12-17T04:42:18;30.17;;;11.20;;
20629;SDS011;17386;43.846;25.950;2022-12-17T04:45:02;42.60;;;12.88;;
20629;SDS011;17386;43.846;25.950;2022-12-17T04:47:46;35.63;;;12.35;;
20629;SDS011;17386;43.846;25.950;2022-12-17T04:50:30;35.25;;;12.65;;
20629;SDS011;17386;43.846;25.950;2022-12-17T04:53:14;37.58;;;13.23;;
20629;SDS011;17386;43.846;25.950;2022-12-17T04:55:58;35.85;;;12.40;;
20629;SDS011;17386;43.846;25.950;2022-12-17T04:58:42;37.97;;;12.25;;
20629;SDS011;17386;43.846;25.950;2022-12-17T05:01:26;35.75;;;12.38;;
20629;SDS011;17386;43.846;25.950;2022-12-17T05:04:10;30.08;;;11.52;;
20629;SDS011;17386;43.846;25.950;2022-12-17T05:06:54;32.35;;;11.75;;
20629;SDS011;17386;43.846;25.950;2022-12-17T05:09:37;36.92;;;12.45;;
20629;SDS011;17386;43.846;25.950;2022-12-17T05:12:21;38.60;;;12.57;;
20629;SDS011;17386;43.846;25.950;2022-12-17T05:15:05;34.17;;;13.50;;
20629;SDS011;17386;43.846;25.950;2022-12-17T05:17:49;32.00;;;11.48;;
20629;SDS011;17386;43.846;25.950;2022-12-17T05:20:33;29.67;;;11.52;;
20629;SDS011;17386;43.846;25.950;2022-12-17T05:23:17;34.95;;;12.57;;
20629;SDS011;17386;43.846;25.950;2022-12-17T05:26:05;29.50;;;11.57;;
20629;SDS011;17386;43.846;25.950;2022-12-17T05:29:09;29.13;;;10.95;;
20629;SDS011;17386;43.846;25.950;2022-12-17T05:31:53;28.85;;;10.75;;
20629;SDS011;17386;43.846;25.950;2022-12-17T05:34:37;32.80;;;11.43;;
20629;SDS011;17386;43.846;25.950;2022-12-17T05:37:21;29.23;;;12.02;;
20629;SDS011;17386;43.846;25.950;2022-12-17T05:40:05;30.05;;;11.52;;
20629;SDS011;17386;43.846;25.950;2022-12-17T05:42:53;29.08;;;11.20;;
20629;SDS011;17386;43.846;25.950;2022-12-17T05:45:38;27.92;;;9.95;;
20629;SDS011;17386;43.846;25.950;2022-12-17T05:48:23;24.95;;;10.45;;
20629;SDS011;17386;43.846;25.950;2022-12-17T05:51:07;25.85;;;10.43;;
20629;SDS011;17386;43.846;25.950;2022-12-17T05:53:52;23.73;;;9.93;;
20629;SDS011;17386;43.846;25.950;2022-12-17T05:56:35;25.25;;;9.80;;
20629;SDS011;17386;43.846;25.950;2022-12-17T05:59:19;24.40;;;9.50;;
20629;SDS011;17386;43.846;25.950;2022-12-17T06:02:03;26.75;;;10.38;;
20629;SDS011;17386;43.846;25.950;2022-12-17T06:04:47;26.85;;;10.70;;
20629;SDS011;17386;43.846;25.950;2022-12-17T06:07:31;31.63;;;11.88;;
20629;SDS011;17386;43.846;25.950;2022-12-17T06:10:15;28.75;;;11.65;;
20629;SDS011;17386;43.846;25.950;2022-12-17T06:12:59;30.80;;;11.48;;
20629;SDS011;17386;43.846;25.950;2022-12-17T06:15:47;28.58;;;11.02;;
20629;SDS011;17386;43.846;25.950;2022-12-17T06:18:31;29.65;;;12.18;;
20629;SDS011;17386;43.846;25.950;2022-12-17T06:21:15;30.17;;;12.23;;
20629;SDS011;17386;43.846;25.950;2022-12-17T06:23:59;29.92;;;12.40;;
20629;SDS011;17386;43.846;25.950;2022-12-17T06:26:43;32.63;;;13.25;;
20629;SDS011;17386;43.846;25.950;2022-12-17T06:29:27;37.33;;;13.95;;
20629;SDS011;17386;43.846;25.950;2022-12-17T06:32:11;38.20;;;14.23;;
20629;SDS011;17386;43.846;25.950;2022-12-17T06:34:55;33.90;;;14.05;;
20629;SDS011;17386;43.846;25.950;2022-12-17T06:37:39;35.42;;;14.57;;
20629;SDS011;17386;43.846;25.950;2022-12-17T06:40:23;35.20;;;15.57;;
20629;SDS011;17386;43.846;25.950;2022-12-17T06:43:07;35.75;;;14.93;;
20629;SDS011;17386;43.846;25.950;2022-12-17T06:45:51;44.60;;;17.35;;
20629;SDS011;17386;43.846;25.950;2022-12-17T06:48:34;45.45;;;18.35;;
20629;SDS011;17386;43.846;25.950;2022-12-17T06:51:18;47.90;;;17.33;;
20629;SDS011;17386;43.846;25.950;2022-12-17T06:54:02;44.40;;;16.45;;
20629;SDS011;17386;43.846;25.950;2022-12-17T06:56:46;38.53;;;15.55;;
20629;SDS011;17386;43.846;25.950;2022-12-17T06:59:30;40.50;;;14.70;;
20629;SDS011;17386;43.846;25.950;2022-12-17T07:02:14;38.70;;;14.48;;
20629;SDS011;17386;43.846;25.950;2022-12-17T07:04:58;37.72;;;13.93;;
20629;SDS011;17386;43.846;25.950;2022-12-17T07:07:42;33.28;;;13.15;;
20629;SDS011;17386;43.846;25.950;2022-12-17T07:10:26;29.10;;;11.90;;
20629;SDS011;17386;43.846;25.950;2022-12-17T07:13:10;29.90;;;12.20;;
20629;SDS011;17386;43.846;25.950;2022-12-17T07:15:54;33.92;;;14.90;;
20629;SDS011;17386;43.846;25.950;2022-12-17T07:18:38;37.95;;;17.15;;
20629;SDS011;17386;43.846;25.950;2022-12-17T07:21:22;39.00;;;16.63;;
20629;SDS011;17386;43.846;25.950;2022-12-17T07:24:07;43.25;;;18.33;;
20629;SDS011;17386;43.846;25.950;2022-12-17T07:27:11;43.13;;;18.42;;
20629;SDS011;17386;43.846;25.950;2022-12-17T07:29:55;54.33;;;22.20;;
20629;SDS011;17386;43.846;25.950;2022-12-17T07:32:39;53.80;;;21.40;;
20629;SDS011;17386;43.846;25.950;2022-12-17T07:35:22;56.08;;;22.30;;
20629;SDS011;17386;43.846;25.950;2022-12-17T07:38:07;60.72;;;24.15;;
20629;SDS011;17386;43.846;25.950;2022-12-17T07:40:52;45.63;;;19.05;;
20629;SDS011;17386;43.846;25.950;2022-12-17T07:43:36;33.03;;;14.07;;
20629;SDS011;17386;43.846;25.950;2022-12-17T07:46:20;35.97;;;14.00;;
20629;SDS011;17386;43.846;25.950;2022-12-17T07:49:04;33.25;;;13.35;;
20629;SDS011;17386;43.846;25.950;2022-12-17T07:51:48;31.63;;;13.50;;
20629;SDS011;17386;43.846;25.950;2022-12-17T07:54:32;33.22;;;11.40;;
20629;SDS011;17386;43.846;25.950;2022-12-17T07:57:17;27.95;;;11.48;;
20629;SDS011;17386;43.846;25.950;2022-12-17T08:00:01;25.25;;;9.95;;
20629;SDS011;17386;43.846;25.950;2022-12-17T08:02:45;31.60;;;12.68;;
20629;SDS011;17386;43.846;25.950;2022-12-17T08:05:29;27.85;;;11.00;;
20629;SDS011;17386;43.846;25.950;2022-12-17T08:08:13;26.08;;;10.88;;
20629;SDS011;17386;43.846;25.950;2022-12-17T08:10:57;22.30;;;9.75;;
20629;SDS011;17386;43.846;25.950;2022-12-17T08:13:42;24.55;;;9.02;;
20629;SDS011;17386;43.846;25.950;2022-12-17T08:16:25;27.98;;;10.38;;
20629;SDS011;17386;43.846;25.950;2022-12-17T08:19:09;27.42;;;11.32;;
20629;SDS011;17386;43.846;25.950;2022-12-17T08:21:53;33.28;;;11.13;;
20629;SDS011;17386;43.846;25.950;2022-12-17T08:24:37;35.00;;;13.52;;
20629;SDS011;17386;43.846;25.950;2022-12-17T08:27:21;26.50;;;11.57;;
20629;SDS011;17386;43.846;25.950;2022-12-17T08:30:05;33.70;;;12.48;;
20629;SDS011;17386;43.846;25.950;2022-12-17T08:32:50;32.80;;;11.75;;
20629;SDS011;17386;43.846;25.950;2022-12-17T08:35:34;33.42;;;11.90;;
20629;SDS011;17386;43.846;25.950;2022-12-17T08:38:18;33.55;;;12.38;;
20629;SDS011;17386;43.846;25.950;2022-12-17T08:41:02;33.50;;;12.93;;
20629;SDS011;17386;43.846;25.950;2022-12-17T08:43:45;37.22;;;14.38;;
20629;SDS011;17386;43.846;25.950;2022-12-17T08:46:29;35.47;;;13.32;;
20629;SDS011;17386;43.846;25.950;2022-12-17T08:49:13;38.70;;;13.95;;
20629;SDS011;17386;43.846;25.950;2022-12-17T08:51:58;36.20;;;14.88;;
20629;SDS011;17386;43.846;25.950;2022-12-17T08:54:42;33.35;;;13.38;;
20629;SDS011;17386;43.846;25.950;2022-12-17T08:57:26;39.60;;;16.33;;
20629;SDS011;17386;43.846;25.950;2022-12-17T09:00:10;41.55;;;15.77;;
20629;SDS011;17386;43.846;25.950;2022-12-17T09:02:55;38.10;;;15.93;;
20629;SDS011;17386;43.846;25.950;2022-12-17T09:05:45;39.67;;;16.95;;
20629;SDS011;17386;43.846;25.950;2022-12-17T09:08:30;39.85;;;16.25;;
20629;SDS011;17386;43.846;25.950;2022-12-17T09:11:14;36.45;;;15.38;;
20629;SDS011;17386;43.846;25.950;2022-12-17T09:13:59;35.67;;;15.45;;
20629;SDS011;17386;43.846;25.950;2022-12-17T09:16:44;32.42;;;14.57;;
20629;SDS011;17386;43.846;25.950;2022-12-17T09:19:28;32.45;;;13.68;;
20629;SDS011;17386;43.846;25.950;2022-12-17T09:22:12;36.42;;;14.80;;
20629;SDS011;17386;43.846;25.950;2022-12-17T09:24:55;30.77;;;13.43;;
20629;SDS011;17386;43.846;25.950;2022-12-17T09:27:40;33.15;;;13.57;;
20629;SDS011;17386;43.846;25.950;2022-12-17T09:30:23;31.33;;;13.40;;
20629;SDS011;17386;43.846;25.950;2022-12-17T09:33:12;29.10;;;13.88;;
20629;SDS011;17386;43.846;25.950;2022-12-17T09:36:03;29.98;;;13.20;;
20629;SDS011;17386;43.846;25.950;2022-12-17T09:38:48;32.72;;;13.65;;
20629;SDS011;17386;43.846;25.950;2022-12-17T09:41:52;28.05;;;12.00;;
20629;SDS011;17386;43.846;25.950;2022-12-17T09:50:39;33.28;;;14.38;;
20629;SDS011;17386;43.846;25.950;2022-12-17T09:56:24;36.20;;;14.57;;
20629;SDS011;17386;43.846;25.950;2022-12-17T09:59:21;33.70;;;13.98;;
20629;SDS011;17386;43.846;25.950;2022-12-17T10:02:11;35.70;;;15.15;;
20629;SDS011;17386;43.846;25.950;2022-12-17T10:04:55;39.08;;;16.92;;
20629;SDS011;17386;43.846;25.950;2022-12-17T10:07:41;34.88;;;16.50;;
20629;SDS011;17386;43.846;25.950;2022-12-17T10:10:29;42.20;;;17.42;;
20629;SDS011;17386;43.846;25.950;2022-12-17T10:13:18;37.30;;;17.77;;
20629;SDS011;17386;43.846;25.950;2022-12-17T10:19:24;39.88;;;18.08;;
20629;SDS011;17386;43.846;25.950;2022-12-17T10:22:14;38.78;;;18.42;;
20629;SDS011;17386;43.846;25.950;2022-12-17T10:28:03;37.72;;;16.10;;
20629;SDS011;17386;43.846;25.950;2022-12-17T10:30:49;35.45;;;15.07;;
20629;SDS011;17386;43.846;25.950;2022-12-17T10:33:35;32.00;;;14.43;;
20629;SDS011;17386;43.846;25.950;2022-12-17T10:36:22;33.17;;;15.52;;
20629;SDS011;17386;43.846;25.950;2022-12-17T10:39:41;31.48;;;14.23;;
20629;SDS011;17386;43.846;25.950;2022-12-17T10:42:29;33.30;;;15.15;;
20629;SDS011;17386;43.846;25.950;2022-12-17T10:45:33;36.00;;;14.95;;
20629;SDS011;17386;43.846;25.950;2022-12-17T10:48:32;31.35;;;13.25;;
20629;SDS011;17386;43.846;25.950;2022-12-17T10:51:32;31.00;;;14.85;;
20629;SDS011;17386;43.846;25.950;2022-12-17T10:59:56;24.95;;;13.05;;
20629;SDS011;17386;43.846;25.950;2022-12-17T11:02:44;29.42;;;13.90;;
20629;SDS011;17386;43.846;25.950;2022-12-17T11:05:32;29.10;;;13.27;;
20629;SDS011;17386;43.846;25.950;2022-12-17T11:08:18;25.08;;;12.48;;
20629;SDS011;17386;43.846;25.950;2022-12-17T11:11:03;22.35;;;11.43;;
20629;SDS011;17386;43.846;25.950;2022-12-17T11:13:49;23.98;;;12.43;;
20629;SDS011;17386;43.846;25.950;2022-12-17T11:16:43;20.27;;;10.27;;
20629;SDS011;17386;43.846;25.950;2022-12-17T11:19:46;20.98;;;11.32;;
20629;SDS011;17386;43.846;25.950;2022-12-17T11:25:41;23.50;;;12.05;;
20629;SDS011;17386;43.846;25.950;2022-12-17T11:28:32;22.50;;;11.10;;
20629;SDS011;17386;43.846;25.950;2022-12-17T11:37:37;22.83;;;10.48;;
20629;SDS011;17386;43.846;25.950;2022-12-17T11:40:37;26.80;;;10.68;;
20629;SDS011;17386;43.846;25.950;2022-12-17T11:46:26;19.27;;;9.38;;
20629;SDS011;17386;43.846;25.950;2022-12-17T11:55:23;18.17;;;8.73;;
20629;SDS011;17386;43.846;25.950;2022-12-17T11:59:02;23.45;;;10.10;;
20629;SDS011;17386;43.846;25.950;2022-12-17T12:02:05;17.25;;;8.98;;
20629;SDS011;17386;43.846;25.950;2022-12-17T12:08:16;17.65;;;8.63;;
20629;SDS011;17386;43.846;25.950;2022-12-17T12:11:10;17.88;;;8.75;;
20629;SDS011;17386;43.846;25.950;2022-12-17T12:14:20;18.30;;;8.90;;
20629;SDS011;17386;43.846;25.950;2022-12-17T12:23:28;17.05;;;8.50;;
20629;SDS011;17386;43.846;25.950;2022-12-17T12:30:07;17.67;;;8.98;;
20629;SDS011;17386;43.846;25.950;2022-12-17T12:36:09;16.00;;;7.32;;
20629;SDS011;17386;43.846;25.950;2022-12-17T12:38:57;20.23;;;9.15;;
20629;SDS011;17386;43.846;25.950;2022-12-17T12:41:44;16.27;;;8.43;;
20629;SDS011;17386;43.846;25.950;2022-12-17T12:45:01;14.43;;;7.47;;
20629;SDS011;17386;43.846;25.950;2022-12-17T12:48:01;16.50;;;8.02;;
20629;SDS011;17386;43.846;25.950;2022-12-17T12:51:12;15.80;;;7.43;;
20629;SDS011;17386;43.846;25.950;2022-12-17T12:54:22;12.88;;;6.30;;
20629;SDS011;17386;43.846;25.950;2022-12-17T12:57:32;13.02;;;6.57;;
20629;SDS011;17386;43.846;25.950;2022-12-17T13:00:27;13.85;;;6.90;;
20629;SDS011;17386;43.846;25.950;2022-12-17T13:03:31;14.15;;;7.47;;
20629;SDS011;17386;43.846;25.950;2022-12-17T13:11:40;15.68;;;8.07;;
20629;SDS011;17386;43.846;25.950;2022-12-17T13:14:12;14.52;;;7.47;;
20629;SDS011;17386;43.846;25.950;2022-12-17T13:16:41;15.25;;;7.35;;
20629;SDS011;17386;43.846;25.950;2022-12-17T13:19:21;14.43;;;7.47;;
20629;SDS011;17386;43.846;25.950;2022-12-17T13:24:39;15.98;;;7.55;;
20629;SDS011;17386;43.846;25.950;2022-12-17T13:32:47;10.82;;;5.72;;
20629;SDS011;17386;43.846;25.950;2022-12-17T13:41:19;9.98;;;5.45;;
20629;SDS011;17386;43.846;25.950;2022-12-17T13:43:51;11.95;;;5.53;;
20629;SDS011;17386;43.846;25.950;2022-12-17T13:46:29;9.02;;;4.93;;
20629;SDS011;17386;43.846;25.950;2022-12-17T13:49:05;9.93;;;5.35;;
20629;SDS011;17386;43.846;25.950;2022-12-17T13:51:43;10.70;;;4.70;;
20629;SDS011;17386;43.846;25.950;2022-12-17T13:54:16;9.80;;;4.90;;
20629;SDS011;17386;43.846;25.950;2022-12-17T13:56:43;9.65;;;4.68;;
20629;SDS011;17386;43.846;25.950;2022-12-17T13:59:15;10.23;;;5.47;;
20629;SDS011;17386;43.846;25.950;2022-12-17T14:01:47;10.70;;;5.10;;
20629;SDS011;17386;43.846;25.950;2022-12-17T14:04:18;10.75;;;5.28;;
20629;SDS011;17386;43.846;25.950;2022-12-17T14:06:45;10.80;;;5.03;;
20629;SDS011;17386;43.846;25.950;2022-12-17T14:09:13;9.93;;;4.70;;
20629;SDS011;17386;43.846;25.950;2022-12-17T14:11:42;7.80;;;4.35;;
20629;SDS011;17386;43.846;25.950;2022-12-17T14:14:33;10.68;;;5.65;;
20629;SDS011;17386;43.846;25.950;2022-12-17T14:17:01;10.25;;;4.88;;
20629;SDS011;17386;43.846;25.950;2022-12-17T14:19:26;10.68;;;5.10;;
20629;SDS011;17386;43.846;25.950;2022-12-17T14:21:53;9.18;;;4.85;;
20629;SDS011;17386;43.846;25.950;2022-12-17T14:24:20;8.60;;;4.68;;
20629;SDS011;17386;43.846;25.950;2022-12-17T14:26:54;9.65;;;4.80;;
20629;SDS011;17386;43.846;25.950;2022-12-17T14:29:26;9.07;;;4.85;;
20629;SDS011;17386;43.846;25.950;2022-12-17T14:31:58;9.30;;;4.82;;
20629;SDS011;17386;43.846;25.950;2022-12-17T14:34:25;21.00;;;8.95;;
20629;SDS011;17386;43.846;25.950;2022-12-17T14:36:57;11.80;;;5.47;;
20629;SDS011;17386;43.846;25.950;2022-12-17T14:41:52;14.63;;;5.88;;
20629;SDS011;17386;43.846;25.950;2022-12-17T14:44:48;11.98;;;5.57;;
20629;SDS011;17386;43.846;25.950;2022-12-17T14:47:24;10.73;;;5.35;;
20629;SDS011;17386;43.846;25.950;2022-12-17T14:49:54;16.52;;;6.70;;
20629;SDS011;17386;43.846;25.950;2022-12-17T14:52:44;14.20;;;5.95;;
20629;SDS011;17386;43.846;25.950;2022-12-17T15:00:41;12.98;;;6.30;;
20629;SDS011;17386;43.846;25.950;2022-12-17T15:05:47;13.18;;;6.07;;
20629;SDS011;17386;43.846;25.950;2022-12-17T15:08:16;12.38;;;5.57;;
20629;SDS011;17386;43.846;25.950;2022-12-17T15:10:42;13.38;;;6.53;;
20629;SDS011;17386;43.846;25.950;2022-12-17T15:13:07;14.27;;;7.30;;
20629;SDS011;17386;43.846;25.950;2022-12-17T15:15:33;13.60;;;6.45;;
20629;SDS011;17386;43.846;25.950;2022-12-17T15:17:58;13.27;;;6.00;;
20629;SDS011;17386;43.846;25.950;2022-12-17T15:20:24;12.23;;;6.50;;
20629;SDS011;17386;43.846;25.950;2022-12-17T15:22:49;15.55;;;7.10;;
20629;SDS011;17386;43.846;25.950;2022-12-17T15:25:16;16.92;;;7.75;;
20629;SDS011;17386;43.846;25.950;2022-12-17T15:30:09;15.25;;;6.57;;
20629;SDS011;17386;43.846;25.950;2022-12-17T15:32:38;15.93;;;7.35;;
20629;SDS011;17386;43.846;25.950;2022-12-17T15:35:04;15.50;;;8.05;;
20629;SDS011;17386;43.846;25.950;2022-12-17T15:37:29;15.20;;;8.00;;
20629;SDS011;17386;43.846;25.950;2022-12-17T15:39:55;16.52;;;7.95;;
20629;SDS011;17386;43.846;25.950;2022-12-17T15:42:20;20.20;;;9.02;;
20629;SDS011;17386;43.846;25.950;2022-12-17T15:45:04;22.13;;;9.20;;
20629;SDS011;17386;43.846;25.950;2022-12-17T15:47:30;20.70;;;8.93;;
20629;SDS011;17386;43.846;25.950;2022-12-17T15:49:56;18.90;;;8.65;;
20629;SDS011;17386;43.846;25.950;2022-12-17T15:52:21;17.58;;;8.20;;
20629;SDS011;17386;43.846;25.950;2022-12-17T15:54:46;19.08;;;8.77;;
20629;SDS011;17386;43.846;25.950;2022-12-17T15:57:13;17.95;;;8.77;;
20629;SDS011;17386;43.846;25.950;2022-12-17T15:59:38;19.80;;;9.27;;
20629;SDS011;17386;43.846;25.950;2022-12-17T16:02:04;19.08;;;9.90;;
20629;SDS011;17386;43.846;25.950;2022-12-17T16:04:29;18.23;;;8.77;;
20629;SDS011;17386;43.846;25.950;2022-12-17T16:06:55;18.90;;;8.90;;
20629;SDS011;17386;43.846;25.950;2022-12-17T16:09:20;17.17;;;7.95;;
20629;SDS011;17386;43.846;25.950;2022-12-17T16:11:54;20.42;;;8.98;;
20629;SDS011;17386;43.846;25.950;2022-12-17T16:14:21;22.80;;;8.73;;
20629;SDS011;17386;43.846;25.950;2022-12-17T16:16:47;18.80;;;8.43;;
20629;SDS011;17386;43.846;25.950;2022-12-17T16:19:13;21.25;;;9.00;;
20629;SDS011;17386;43.846;25.950;2022-12-17T16:21:38;20.30;;;9.60;;
20629;SDS011;17386;43.846;25.950;2022-12-17T16:24:03;18.05;;;8.80;;
20629;SDS011;17386;43.846;25.950;2022-12-17T16:26:29;21.48;;;9.90;;
20629;SDS011;17386;43.846;25.950;2022-12-17T16:28:56;22.95;;;9.75;;
20629;SDS011;17386;43.846;25.950;2022-12-17T16:31:22;23.60;;;10.40;;
20629;SDS011;17386;43.846;25.950;2022-12-17T16:33:48;22.98;;;10.60;;
20629;SDS011;17386;43.846;25.950;2022-12-17T16:36:14;31.67;;;11.75;;
20629;SDS011;17386;43.846;25.950;2022-12-17T16:38:45;28.60;;;11.18;;
20629;SDS011;17386;43.846;25.950;2022-12-17T16:41:12;29.45;;;11.35;;
20629;SDS011;17386;43.846;25.950;2022-12-17T16:43:39;27.85;;;11.70;;
20629;SDS011;17386;43.846;25.950;2022-12-17T16:46:04;35.20;;;13.30;;
20629;SDS011;17386;43.846;25.950;2022-12-17T16:48:35;34.70;;;13.73;;
20629;SDS011;17386;43.846;25.950;2022-12-17T16:51:07;33.13;;;12.55;;
20629;SDS011;17386;43.846;25.950;2022-12-17T16:53:40;32.45;;;13.07;;
20629;SDS011;17386;43.846;25.950;2022-12-17T16:56:06;30.65;;;12.90;;
20629;SDS011;17386;43.846;25.950;2022-12-17T16:58:31;35.70;;;14.05;;
20629;SDS011;17386;43.846;25.950;2022-12-17T17:00:57;31.98;;;13.57;;
20629;SDS011;17386;43.846;25.950;2022-12-17T17:03:22;31.00;;;13.15;;
20629;SDS011;17386;43.846;25.950;2022-12-17T17:05:48;32.10;;;12.75;;
20629;SDS011;17386;43.846;25.950;2022-12-17T17:08:13;32.83;;;13.05;;
20629;SDS011;17386;43.846;25.950;2022-12-17T17:10:39;34.08;;;13.25;;
20629;SDS011;17386;43.846;25.950;2022-12-17T17:13:05;28.17;;;11.77;;
20629;SDS011;17386;43.846;25.950;2022-12-17T17:15:30;38.10;;;14.07;;